Time;durP1;ratioP1;P1;durP2;ratioP2;P2;SDS_P1;SDS_P2;PMS_P1;PMS_P2;Temp;Humidity;BMP_temperature;BMP_pressure;BME280_temperature;BME280_humidity;BME280_pressure;Samples;Min_cycle;Max_cycle;Signal;HPM_P1;HPM_P2
2024/01/15 00:02:13;;;;;;;0.40;0.40;;;;;;;5.93;43.17;100569.19;4930766;29;20462;-88
2024/01/15 00:04:39;;;;;;;0.65;0.50;;;;;;;5.94;43.10;100567.38;4930677;29;20410;-90
2024/01/15 00:07:06;;;;;;;1.25;0.98;;;;;;;5.98;42.73;100578.47;4929571;29;20458;-90
2024/01/15 00:09:31;;;;;;;0.45;0.35;;;;;;;5.94;42.87;100557.72;4930127;29;20404;-89
2024/01/15 00:11:57;;;;;;;0.83;0.50;;;;;;;5.97;43.07;100561.06;4931944;29;20402;-89
2024/01/15 00:14:23;;;;;;;1.07;0.80;;;;;;;5.86;43.42;100562.84;4929276;29;20387;-90
2024/01/15 00:16:54;;;;;;;0.60;0.60;;;;;;;5.81;43.14;100561.63;4932291;29;20395;-90
2024/01/15 00:19:21;;;;;;;1.10;0.73;;;;;;;5.85;43.37;100571.72;4932791;29;20391;-90
2024/01/15 00:21:47;;;;;;;0.80;0.38;;;;;;;5.87;43.46;100566.28;4933254;29;20386;-88
2024/01/15 00:24:13;;;;;;;0.50;0.30;;;;;;;5.81;43.10;100556.34;4943010;29;20514;-89
2024/01/15 00:26:38;;;;;;;0.90;0.73;;;;;;;5.85;42.93;100561.19;4956080;29;20407;-90
2024/01/15 00:29:04;;;;;;;2.30;0.75;;;;;;;5.87;43.15;100561.88;4953615;29;20840;-90
2024/01/15 00:31:30;;;;;;;1.33;0.50;;;;;;;5.85;43.11;100555.09;4932240;29;20473;-90
2024/01/15 00:33:57;;;;;;;1.58;0.80;;;;;;;5.78;42.92;100551.38;4931491;29;20910;-90
2024/01/15 00:36:23;;;;;;;3.67;1.13;;;;;;;5.42;43.76;100546.75;4931586;29;20445;-90
2024/01/15 00:38:48;;;;;;;1.47;0.60;;;;;;;5.34;43.75;100541.34;4929559;29;20505;-88
2024/01/15 00:41:14;;;;;;;2.83;1.30;;;;;;;5.44;43.66;100546.59;4931985;29;20447;-88
2024/01/15 00:43:40;;;;;;;1.58;0.80;;;;;;;5.48;43.76;100548.00;4941202;29;20445;-88
2024/01/15 00:46:06;;;;;;;2.23;1.10;;;;;;;5.43;43.66;100540.50;4949095;29;20414;-88
2024/01/15 00:48:32;;;;;;;0.60;0.30;;;;;;;5.56;43.91;100548.09;4948677;29;20403;-90
2024/01/15 00:50:57;;;;;;;1.50;1.00;;;;;;;5.58;43.82;100545.34;4932911;29;20391;-90
2024/01/15 00:53:23;;;;;;;1.20;0.55;;;;;;;5.54;43.41;100540.34;4932181;29;20399;-89
2024/01/15 00:55:49;;;;;;;0.65;0.40;;;;;;;5.56;43.39;100548.09;4933581;29;20491;-89
2024/01/15 00:58:15;;;;;;;1.08;0.60;;;;;;;5.58;43.61;100540.06;4939789;29;20394;-89
2024/01/15 01:00:41;;;;;;;1.60;0.85;;;;;;;5.59;43.50;100539.13;4945306;29;20515;-88
2024/01/15 01:03:07;;;;;;;1.10;0.50;;;;;;;5.58;43.56;100540.88;4947665;29;20410;-90
2024/01/15 01:05:35;;;;;;;0.98;0.47;;;;;;;5.55;43.26;100543.81;4946738;29;20490;-89
2024/01/15 01:08:01;;;;;;;0.98;0.50;;;;;;;5.58;43.27;100540.88;4932455;29;20435;-88
2024/01/15 01:10:27;;;;;;;0.87;0.47;;;;;;;5.51;43.39;100539.81;4929949;29;20426;-89
2024/01/15 01:12:53;;;;;;;1.08;0.70;;;;;;;5.28;43.81;100544.56;4929630;29;20470;-89
2024/01/15 01:15:18;;;;;;;1.23;1.00;;;;;;;4.73;45.92;100543.28;4930035;29;20593;-89
2024/01/15 01:17:44;;;;;;;1.23;0.80;;;;;;;4.41;46.53;100548.75;4929403;29;20417;-88
2024/01/15 01:20:10;;;;;;;1.43;0.77;;;;;;;4.35;46.85;100544.84;4932851;29;21191;-89
2024/01/15 01:22:36;;;;;;;1.80;1.10;;;;;;;4.24;47.41;100536.28;4932750;29;21144;-88
2024/01/15 01:25:02;;;;;;;2.15;1.35;;;;;;;4.27;47.02;100534.22;4932133;29;20425;-90
2024/01/15 01:27:28;;;;;;;1.00;0.65;;;;;;;4.36;46.87;100529.97;4932194;29;20408;-89
2024/01/15 01:29:53;;;;;;;1.45;1.20;;;;;;;4.36;46.50;100532.59;4933201;29;20699;-89
2024/01/15 01:32:19;;;;;;;1.20;0.73;;;;;;;4.24;46.57;100537.09;4932512;29;20766;-92
2024/01/15 01:34:45;;;;;;;0.97;0.70;;;;;;;4.27;46.63;100534.22;4933168;29;20394;-90
2024/01/15 01:37:13;;;;;;;1.90;1.10;;;;;;;4.26;46.67;100531.72;4935263;29;20406;-88
2024/01/15 01:39:39;;;;;;;1.30;1.20;;;;;;;4.27;46.18;100530.75;4936272;29;20481;-92
2024/01/15 01:42:05;;;;;;;0.57;0.57;;;;;;;4.38;46.26;100536.72;4935482;29;20399;-92
2024/01/15 01:44:33;;;;;;;0.40;0.40;;;;;;;4.36;45.95;100532.59;4938802;29;20418;-88
2024/01/15 01:47:00;;;;;;;0.27;0.27;;;;;;;4.37;45.79;100521.94;4956103;29;20458;-88
2024/01/15 01:49:27;;;;;;;0.70;0.70;;;;;;;4.20;46.10;100528.66;4927237;29;20474;-94
2024/01/15 01:51:53;;;;;;;1.13;0.70;;;;;;;4.06;46.60;100536.06;4941993;29;20390;-91
2024/01/15 01:54:20;;;;;;;1.23;0.93;;;;;;;3.83;47.27;100531.84;4936934;29;20462;-91
2024/01/15 01:56:48;;;;;;;1.50;1.13;;;;;;;3.75;47.58;100534.28;4935794;29;20662;-91
2024/01/15 01:59:14;;;;;;;1.38;1.10;;;;;;;3.87;47.11;100521.06;4934488;29;20499;-90
2024/01/15 02:01:40;;;;;;;0.47;0.43;;;;;;;4.02;46.77;100523.22;4937801;29;20449;-91
2024/01/15 02:04:06;;;;;;;8.88;1.35;;;;;;;4.04;46.44;100509.16;4934152;29;20491;-88
2024/01/15 02:06:33;;;;;;;5.40;1.65;;;;;;;4.12;46.33;100511.91;4936228;29;20455;-90
2024/01/15 02:08:59;;;;;;;1.50;1.40;;;;;;;4.13;46.12;100503.09;4941886;29;20410;-89
2024/01/15 02:11:25;;;;;;;1.55;1.45;;;;;;;4.16;45.92;100500.19;4939543;29;20395;-88
2024/01/15 02:13:50;;;;;;;0.85;0.45;;;;;;;4.14;46.33;100491.63;4938298;29;20928;-90
2024/01/15 02:16:16;;;;;;;2.60;1.20;;;;;;;4.16;46.39;100487.06;4933112;29;20807;-89
2024/01/15 02:18:46;;;;;;;0.45;0.45;;;;;;;4.20;46.17;100478.00;4934744;29;20415;-89
2024/01/15 02:21:12;;;;;;;1.38;1.08;;;;;;;4.22;46.34;100487.38;4932961;29;20391;-88
2024/01/15 02:23:38;;;;;;;2.22;2.08;;;;;;;4.13;46.07;100472.44;4932455;29;20410;-89
2024/01/15 02:26:05;;;;;;;0.88;0.75;;;;;;;4.21;46.34;100470.00;4939026;29;20422;-88
2024/01/15 02:28:32;;;;;;;0.80;0.80;;;;;;;4.32;46.04;100465.56;4948616;29;20421;-88
2024/01/15 02:30:57;;;;;;;1.00;0.90;;;;;;;4.31;46.15;100464.75;4955988;29;20415;-88
2024/01/15 02:33:23;;;;;;;1.02;1.00;;;;;;;4.08;46.56;100466.75;4934889;29;20399;-90
2024/01/15 02:35:50;;;;;;;2.78;2.17;;;;;;;3.64;47.75;100453.09;4935078;29;20396;-89
2024/01/15 02:38:15;;;;;;;0.75;0.75;;;;;;;3.49;48.28;100464.88;4933021;29;20401;-89
2024/01/15 02:40:43;;;;;;;0.82;0.82;;;;;;;3.64;47.79;100464.41;4933745;29;20395;-89
2024/01/15 02:43:08;;;;;;;1.65;1.55;;;;;;;3.83;47.24;100454.94;4933155;29;20421;-89
2024/01/15 02:45:34;;;;;;;0.53;0.53;;;;;;;3.92;47.13;100451.53;4945298;29;20466;-88
2024/01/15 02:48:00;;;;;;;1.67;0.80;;;;;;;3.93;47.24;100453.19;4957009;29;20390;-88
2024/01/15 02:50:28;;;;;;;1.80;1.70;;;;;;;3.90;47.47;100444.78;4954002;29;20420;-88
2024/01/15 02:52:54;;;;;;;2.20;2.10;;;;;;;3.66;48.55;100452.97;4932489;29;20438;-90
2024/01/15 02:55:20;;;;;;;0.98;0.82;;;;;;;3.31;49.68;100447.13;4931566;29;20558;-88
2024/01/15 02:57:46;;;;;;;0.70;0.70;;;;;;;3.15;50.54;100452.00;4929507;29;20465;-88
2024/01/15 03:00:11;;;;;;;0.77;0.77;;;;;;;3.19;50.08;100443.75;4929596;29;20411;-89
2024/01/15 03:02:43;;;;;;;1.60;1.50;;;;;;;3.27;50.06;100443.09;4930522;29;20798;-88
2024/01/15 03:05:09;;;;;;;1.33;0.90;;;;;;;3.36;49.80;100442.31;4929671;29;20486;-90
2024/01/15 03:07:38;;;;;;;1.60;1.50;;;;;;;3.43;49.89;100442.66;4929893;29;20419;-89
2024/01/15 03:10:08;;;;;;;1.40;1.30;;;;;;;3.43;49.62;100433.00;4931753;29;20875;-90
2024/01/15 03:12:34;;;;;;;0.50;0.50;;;;;;;3.50;49.24;100435.09;4931297;29;20506;-90
2024/01/15 03:14:59;;;;;;;0.30;0.30;;;;;;;3.49;49.43;100439.50;4934879;29;20406;-89
2024/01/15 03:17:25;;;;;;;1.00;1.00;;;;;;;3.44;49.49;100424.19;4933193;29;20454;-88
2024/01/15 03:19:51;;;;;;;0.40;0.30;;;;;;;3.38;49.68;100416.81;4930578;29;20402;-88
2024/01/15 03:22:17;;;;;;;2.20;1.20;;;;;;;3.41;49.95;100434.09;4930023;29;20391;-87
2024/01/15 03:24:43;;;;;;;5.75;1.85;;;;;;;3.43;49.75;100425.13;4949051;23;20743;-87
2024/01/15 03:27:09;;;;;;;1.15;1.05;;;;;;;3.45;49.73;100420.59;4892636;29;20488;-87
2024/01/15 03:29:35;;;;;;;0.97;0.87;;;;;;;3.44;49.50;100407.63;4894160;29;20810;-87
2024/01/15 03:32:00;;;;;;;0.70;0.70;;;;;;;3.54;49.48;100411.09;4892153;29;20436;-87
2024/01/15 03:34:26;;;;;;;0.30;0.30;;;;;;;3.60;49.09;100394.88;4890972;29;20427;-88
2024/01/15 03:36:51;;;;;;;0.50;0.50;;;;;;;3.61;48.91;100401.75;4891971;29;20402;-88
2024/01/15 03:39:17;;;;;;;0.47;0.47;;;;;;;3.55;49.23;100394.44;4892161;29;20434;-88
2024/01/15 03:41:43;;;;;;;1.40;1.20;;;;;;;3.51;49.11;100393.03;4892010;29;20395;-89
2024/01/15 03:44:08;;;;;;;0.30;0.30;;;;;;;3.50;49.27;100390.56;4894280;29;20424;-89
2024/01/15 03:46:34;;;;;;;0.60;0.60;;;;;;;3.48;49.31;100377.59;4892148;29;20492;-89
2024/01/15 03:48:59;;;;;;;2.30;2.10;;;;;;;3.51;49.59;100381.72;4894128;29;20450;-89
2024/01/15 03:51:25;;;;;;;0.43;0.40;;;;;;;3.51;49.74;100385.19;4897371;29;20401;-87
2024/01/15 03:53:56;;;;;;;1.60;1.50;;;;;;;3.51;49.33;100379.09;4896352;29;20402;-88
2024/01/15 03:56:21;;;;;;;3.80;1.30;;;;;;;3.21;49.83;100386.84;4897868;29;20406;-88
2024/01/15 03:58:50;;;;;;;2.00;1.90;;;;;;;3.08;50.67;100385.38;4899657;29;20395;-89
2024/01/15 04:01:15;;;;;;;1.50;1.20;;;;;;;2.86;51.37;100381.94;4896866;29;20442;-89
2024/01/15 04:03:41;;;;;;;1.48;1.42;;;;;;;2.68;51.52;100372.06;4891623;29;20447;-89
2024/01/15 04:06:07;;;;;;;0.52;0.52;;;;;;;2.59;51.46;100375.44;4894557;29;20881;-89
2024/01/15 04:08:32;;;;;;;1.43;0.73;;;;;;;2.63;51.66;100378.63;4893018;29;20394;-90
2024/01/15 04:10:58;;;;;;;1.10;1.00;;;;;;;2.71;51.37;100370.16;4891903;29;20913;-90
2024/01/15 04:13:23;;;;;;;1.87;1.77;;;;;;;2.58;51.39;100368.53;4892595;29;20386;-90
2024/01/15 04:15:49;;;;;;;1.50;1.40;;;;;;;2.59;51.30;100378.06;4892382;29;20437;-90
2024/01/15 04:18:16;;;;;;;0.67;0.67;;;;;;;2.53;51.09;100378.56;4905941;29;20390;-87
2024/01/15 04:20:41;;;;;;;0.60;0.60;;;;;;;2.58;50.95;100378.19;4914801;29;20398;-89
2024/01/15 04:23:07;;;;;;;0.60;0.60;;;;;;;2.56;50.59;100374.88;4915284;29;20493;-90
2024/01/15 04:25:33;;;;;;;0.47;0.47;;;;;;;2.53;50.62;100362.84;4894037;29;20422;-89
2024/01/15 04:28:01;;;;;;;0.88;0.60;;;;;;;2.52;50.29;100358.59;4894013;29;20452;-89
2024/01/15 04:30:27;;;;;;;0.60;0.60;;;;;;;2.55;50.37;100363.56;4895681;29;20498;-90
2024/01/15 04:32:53;;;;;;;0.80;0.55;;;;;;;2.62;50.16;100367.31;4896494;29;20418;-91
2024/01/15 04:35:19;;;;;;;0.57;0.57;;;;;;;2.73;49.83;100366.44;4895617;29;20951;-90
2024/01/15 04:37:44;;;;;;;0.20;0.20;;;;;;;2.83;49.32;100351.63;4907404;29;20441;-90
2024/01/15 04:40:12;;;;;;;0.90;0.60;;;;;;;2.93;49.25;100353.47;4913557;29;20442;-90
2024/01/15 04:42:38;;;;;;;0.60;0.30;;;;;;;3.04;48.85;100377.81;4912216;29;20442;-90
2024/01/15 04:45:04;;;;;;;0.52;0.40;;;;;;;2.99;48.85;100360.78;4890231;29;20426;-88
2024/01/15 04:47:39;;;;;;;0.32;0.32;;;;;;;2.99;48.86;100358.19;4892765;29;20495;-89
2024/01/15 04:50:05;;;;;;;0.90;0.77;;;;;;;3.04;48.98;100363.84;4888847;29;20424;-93
2024/01/15 04:52:31;;;;;;;0.43;0.43;;;;;;;3.01;48.85;100354.47;4892824;29;20454;-88
2024/01/15 04:54:59;;;;;;;0.40;0.40;;;;;;;3.00;48.90;100346.75;4896750;29;20418;-89
2024/01/15 04:57:25;;;;;;;3.00;1.50;;;;;;;2.98;48.75;100352.13;4894824;29;20420;-89
2024/01/15 04:59:50;;;;;;;0.60;0.50;;;;;;;2.95;48.78;100354.16;4889169;29;20407;-90
2024/01/15 05:02:16;;;;;;;0.22;0.22;;;;;;;2.97;48.75;100350.47;4891796;29;20426;-89
2024/01/15 05:04:42;;;;;;;0.65;0.60;;;;;;;3.12;48.64;100355.38;4903842;29;20801;-88
2024/01/15 05:07:08;;;;;;;0.50;0.40;;;;;;;3.18;48.44;100353.03;4887784;29;20425;-89
2024/01/15 05:09:34;;;;;;;0.43;0.43;;;;;;;3.24;48.48;100351.69;4898187;29;20406;-91
2024/01/15 05:12:01;;;;;;;0.80;0.80;;;;;;;3.12;48.52;100348.34;4897827;29;20450;-88
2024/01/15 05:14:27;;;;;;;0.90;0.90;;;;;;;3.04;48.46;100340.28;4894444;29;20925;-88
2024/01/15 05:16:53;;;;;;;0.60;0.60;;;;;;;3.10;48.62;100341.56;4896691;29;20742;-87
2024/01/15 05:19:19;;;;;;;1.30;1.20;;;;;;;3.14;48.68;100345.59;4894581;29;20406;-88
2024/01/15 05:21:45;;;;;;;0.77;0.75;;;;;;;3.17;48.73;100325.19;4896245;29;20897;-87
2024/01/15 05:24:11;;;;;;;0.70;0.70;;;;;;;3.15;48.55;100327.13;4895655;29;20430;-87
2024/01/15 05:26:39;;;;;;;1.40;1.30;;;;;;;3.19;48.65;100325.06;4895350;29;20418;-87
2024/01/15 05:29:04;;;;;;;2.30;2.10;;;;;;;3.18;48.53;100320.78;4892937;29;20428;-87
2024/01/15 05:31:33;;;;;;;1.00;0.77;;;;;;;3.08;48.62;100315.53;4895279;29;20406;-88
2024/01/15 05:33:59;;;;;;;0.40;0.30;;;;;;;3.19;48.78;100325.91;4896789;29;20413;-87
2024/01/15 05:39:09;;;;;;;0.70;0.60;;;;;;;3.10;48.61;100334.53;4892692;29;20558;-88
2024/01/15 05:41:34;;;;;;;3.35;1.77;;;;;;;3.06;49.46;100344.44;4897226;29;20422;-87
2024/01/15 05:44:00;;;;;;;2.13;1.92;;;;;;;3.09;49.31;100335.50;4897186;29;20803;-87
2024/01/15 05:46:26;;;;;;;0.85;0.75;;;;;;;3.21;49.21;100338.88;4897710;29;20485;-86
2024/01/15 05:48:51;;;;;;;1.63;1.52;;;;;;;3.19;49.05;100336.38;4896616;29;20790;-89
2024/01/15 05:51:17;;;;;;;1.95;1.65;;;;;;;3.17;49.09;100351.41;4896049;29;20417;-89
2024/01/15 05:53:44;;;;;;;1.40;1.30;;;;;;;3.18;49.32;100354.84;4886185;29;20391;-88
2024/01/15 05:56:10;;;;;;;1.50;1.40;;;;;;;3.13;49.50;100360.44;4891425;29;20795;-87
2024/01/15 05:58:36;;;;;;;1.13;1.02;;;;;;;3.23;49.45;100357.91;4886093;29;20406;-86
2024/01/15 06:01:01;;;;;;;1.67;1.13;;;;;;;3.29;49.50;100344.25;4900381;29;20494;-87
2024/01/15 06:03:30;;;;;;;1.10;0.83;;;;;;;3.31;49.25;100342.34;4894860;29;20414;-88
2024/01/15 06:05:56;;;;;;;1.48;1.10;;;;;;;3.33;49.10;100331.72;4894047;29;20969;-86
2024/01/15 06:08:22;;;;;;;0.60;0.60;;;;;;;3.44;49.16;100345.56;4896199;29;20390;-87
2024/01/15 06:10:48;;;;;;;1.37;1.27;;;;;;;3.56;48.84;100348.06;4897429;29;20394;-89
2024/01/15 06:13:13;;;;;;;1.43;1.07;;;;;;;3.57;48.84;100332.22;4896881;29;20402;-85
2024/01/15 06:15:39;;;;;;;2.07;1.97;;;;;;;3.51;49.13;100337.16;4896757;29;20430;-85
2024/01/15 06:18:08;;;;;;;0.70;0.70;;;;;;;3.49;49.26;100333.84;4898679;29;20394;-87
2024/01/15 06:20:34;;;;;;;0.45;0.45;;;;;;;3.41;49.11;100329.28;4896956;29;20427;-83
2024/01/15 06:23:00;;;;;;;0.80;0.60;;;;;;;3.40;49.23;100327.63;4900699;29;20910;-82
2024/01/15 06:25:25;;;;;;;0.60;0.60;;;;;;;3.42;49.10;100329.16;4902707;29;20426;-86
2024/01/15 06:27:51;;;;;;;0.45;0.45;;;;;;;3.37;49.23;100315.63;4899251;29;20550;-84
2024/01/15 06:30:17;;;;;;;0.77;0.63;;;;;;;3.30;48.94;100303.19;4890785;29;20425;-87
2024/01/15 06:32:43;;;;;;;0.55;0.55;;;;;;;3.39;48.95;100307.63;4898906;29;20968;-87
2024/01/15 06:35:10;;;;;;;0.65;0.55;;;;;;;3.39;49.12;100307.63;4898212;29;21071;-85
2024/01/15 06:37:36;;;;;;;0.57;0.57;;;;;;;3.43;49.02;100301.16;4899785;29;20386;-86
2024/01/15 06:40:01;;;;;;;0.80;0.80;;;;;;;3.48;48.87;100303.38;4899551;29;20473;-87
2024/01/15 06:42:28;;;;;;;0.50;0.50;;;;;;;3.43;48.99;100293.28;4910604;29;20442;-83
2024/01/15 06:44:54;;;;;;;0.73;0.63;;;;;;;3.49;49.22;100298.00;4901230;29;21028;-86
2024/01/15 06:47:19;;;;;;;1.60;1.30;;;;;;;3.40;49.06;100293.56;4897557;29;20426;-86
2024/01/15 06:49:48;;;;;;;0.93;0.93;;;;;;;3.33;49.48;100277.56;4897234;29;20394;-86
2024/01/15 06:52:14;;;;;;;1.35;1.35;;;;;;;3.27;49.60;100272.84;4897059;29;20416;-86
2024/01/15 06:54:39;;;;;;;1.20;1.10;;;;;;;3.29;49.91;100276.16;4897523;29;20397;-86
2024/01/15 06:57:08;;;;;;;1.40;1.10;;;;;;;3.44;49.64;100280.06;4897221;29;20403;-86
2024/01/15 06:59:35;;;;;;;1.10;0.73;;;;;;;3.50;49.28;100273.44;4894986;29;20556;-86
2024/01/15 07:02:01;;;;;;;1.42;1.30;;;;;;;3.39;49.40;100297.16;4896069;29;20433;-87
2024/01/15 07:04:26;;;;;;;0.82;0.82;;;;;;;3.50;49.53;100291.78;4898085;29;20497;-87
2024/01/15 07:06:52;;;;;;;0.80;0.80;;;;;;;3.65;49.08;100271.25;4899746;29;20902;-87
2024/01/15 07:09:18;;;;;;;0.80;0.80;;;;;;;3.69;48.96;100282.31;4901862;29;20387;-87
2024/01/15 07:11:47;;;;;;;2.20;1.40;;;;;;;3.67;49.14;100284.22;4901121;29;20484;-87
2024/01/15 07:14:13;;;;;;;0.80;0.80;;;;;;;3.53;49.49;100278.44;4902702;29;20422;-86
2024/01/15 07:16:38;;;;;;;1.55;1.48;;;;;;;3.44;49.38;100292.34;4902005;29;20402;-86
2024/01/15 07:19:04;;;;;;;1.40;1.33;;;;;;;3.50;49.92;100291.78;4899994;29;20488;-85
2024/01/15 07:21:30;;;;;;;3.58;1.45;;;;;;;3.42;50.31;100289.84;4900711;29;20905;-87
2024/01/15 07:23:55;;;;;;;0.80;0.80;;;;;;;3.31;50.28;100300.41;4894174;29;20938;-86
2024/01/15 07:26:21;;;;;;;0.60;0.60;;;;;;;3.29;50.55;100296.28;4890273;29;20510;-87
2024/01/15 07:28:47;;;;;;;1.20;1.20;;;;;;;3.34;50.44;100297.53;4897489;29;20395;-85
2024/01/15 07:31:12;;;;;;;1.10;1.10;;;;;;;3.40;50.02;100288.31;4883500;29;20400;-85
2024/01/15 07:33:38;;;;;;;1.42;1.33;;;;;;;3.57;50.04;100308.63;4895484;29;20402;-86
2024/01/15 07:36:04;;;;;;;1.67;1.58;;;;;;;3.58;50.05;100281.47;4897926;29;20414;-88
2024/01/15 07:38:30;;;;;;;1.20;1.17;;;;;;;3.70;49.86;100305.75;4898648;29;20409;-88
2024/01/15 07:40:55;;;;;;;1.08;1.02;;;;;;;3.69;49.66;100287.53;4899571;29;20395;-89
2024/01/15 07:43:22;;;;;;;1.25;1.20;;;;;;;3.64;49.83;100290.59;4897158;29;20955;-87
2024/01/15 07:45:51;;;;;;;1.27;1.25;;;;;;;3.64;49.67;100282.72;4889248;29;20901;-87
2024/01/15 07:48:17;;;;;;;2.15;2.05;;;;;;;3.54;49.88;100293.19;4897656;29;20402;-90
2024/01/15 07:50:42;;;;;;;1.07;1.00;;;;;;;3.54;50.38;100269.59;4886266;29;20497;-90
2024/01/15 07:53:08;;;;;;;1.10;1.00;;;;;;;3.74;49.43;100277.50;4901097;29;20438;-87
2024/01/15 07:55:34;;;;;;;1.02;0.98;;;;;;;3.81;49.53;100268.94;4901799;29;21009;-86
2024/01/15 07:57:59;;;;;;;1.20;1.10;;;;;;;3.98;48.94;100269.22;4898525;29;20465;-89
2024/01/15 08:00:25;;;;;;;1.23;0.75;;;;;;;3.99;49.25;100273.50;4890396;29;20413;-88
2024/01/15 08:02:55;;;;;;;0.90;0.82;;;;;;;3.99;49.25;100263.81;4897012;29;20403;-88
2024/01/15 08:05:20;;;;;;;1.50;1.40;;;;;;;4.17;48.80;100282.31;4896321;29;20409;-86
2024/01/15 08:07:46;;;;;;;2.10;2.00;;;;;;;4.16;48.96;100259.69;4895596;29;20394;-89
2024/01/15 08:10:18;;;;;;;1.02;0.52;;;;;;;4.73;51.03;100264.13;4896292;29;20398;-85
2024/01/15 08:12:51;;;;;;;2.15;1.70;;;;;;;6.33;57.52;100280.31;4895603;29;20401;-85
2024/01/15 08:15:25;;;;;;;3.95;2.10;;;;;;;7.56;62.63;100283.59;4894513;29;20402;-85
2024/01/15 08:17:54;;;;;;;1.10;1.00;;;;;;;8.20;62.23;100278.56;4894995;29;20417;-86
2024/01/15 08:20:19;;;;;;;1.83;1.73;;;;;;;7.96;61.41;100279.38;4891301;29;20903;-87
2024/01/15 08:22:46;;;;;;;2.35;2.15;;;;;;;7.50;59.72;100283.41;4893528;29;20413;-86
2024/01/15 08:25:12;;;;;;;1.92;1.83;;;;;;;6.94;58.18;100275.94;4904046;29;20426;-85
2024/01/15 08:27:42;;;;;;;1.98;1.88;;;;;;;6.22;56.99;100280.56;4900902;29;20411;-89
2024/01/15 08:30:08;;;;;;;1.42;1.33;;;;;;;5.89;56.45;100270.56;4901963;29;20486;-89
2024/01/15 08:32:37;;;;;;;0.90;0.90;;;;;;;5.58;55.01;100267.44;4881107;29;20443;-90
2024/01/15 08:35:04;;;;;;;2.28;2.17;;;;;;;5.05;53.41;100265.53;4883088;29;20426;-92
2024/01/15 08:37:29;;;;;;;14.20;2.20;;;;;;;4.90;53.02;100273.88;4878590;29;20454;-88
2024/01/15 08:39:55;;;;;;;1.53;1.43;;;;;;;4.81;52.77;100274.75;4879043;29;20419;-89
2024/01/15 08:42:22;;;;;;;0.20;0.20;;;;;;;4.98;52.09;100263.47;4887407;29;20392;-89
2024/01/15 08:44:53;;;;;;;0.80;0.80;;;;;;;5.01;51.69;100257.13;4895563;29;20499;-88
2024/01/15 08:47:18;;;;;;;0.85;0.85;;;;;;;4.88;51.36;100252.19;4886405;29;20427;-87
2024/01/15 08:49:45;;;;;;;2.67;1.67;;;;;;;4.94;50.99;100254.25;4879300;29;20459;-89
2024/01/15 08:52:11;;;;;;;1.15;1.15;;;;;;;4.85;50.59;100259.53;4882628;29;20904;-89
2024/01/15 08:54:37;;;;;;;4.27;1.63;;;;;;;4.62;49.81;100267.75;4881292;29;20449;-88
2024/01/15 08:57:05;;;;;;;1.00;1.00;;;;;;;4.28;50.06;100255.09;4879909;29;20396;-89
2024/01/15 08:59:33;;;;;;;0.85;0.82;;;;;;;4.27;50.15;100269.22;4878243;29;20404;-89
2024/01/15 09:02:01;;;;;;;1.15;1.15;;;;;;;4.47;49.89;100261.31;4894164;29;20938;-89
2024/01/15 09:04:27;;;;;;;1.80;0.82;;;;;;;4.63;49.57;100258.06;4879587;29;20498;-88
2024/01/15 09:06:52;;;;;;;2.87;1.50;;;;;;;4.49;49.29;100246.25;4881357;29;20460;-88
2024/01/15 09:09:18;;;;;;;0.95;0.90;;;;;;;4.61;49.37;100234.63;4880660;29;20962;-88
2024/01/15 09:11:46;;;;;;;1.35;0.98;;;;;;;4.59;49.42;100232.13;4879088;29;20534;-88
2024/01/15 09:14:11;;;;;;;0.32;0.32;;;;;;;4.58;49.53;100219.97;4881477;29;20491;-88
2024/01/15 09:16:37;;;;;;;0.60;0.60;;;;;;;4.63;49.04;100216.06;4880095;29;20886;-89
2024/01/15 09:19:03;;;;;;;0.75;0.75;;;;;;;4.64;49.09;100225.59;4879288;29;20455;-88
2024/01/15 09:21:29;;;;;;;0.55;0.50;;;;;;;4.63;49.32;100216.06;4880453;29;20395;-87
2024/01/15 09:23:54;;;;;;;0.80;0.80;;;;;;;4.52;49.23;100214.44;4880304;29;20525;-89
2024/01/15 09:26:20;;;;;;;0.30;0.30;;;;;;;4.63;49.20;100216.06;4896853;29;20431;-89
2024/01/15 09:28:46;;;;;;;0.90;0.60;;;;;;;4.67;49.47;100206.94;4881576;29;20443;-91
2024/01/15 09:31:14;;;;;;;0.65;0.65;;;;;;;4.72;49.48;100204.72;4878758;29;20411;-90
2024/01/15 09:33:43;;;;;;;0.90;0.90;;;;;;;4.69;49.77;100189.25;4881419;29;20436;-89
2024/01/15 09:36:09;;;;;;;0.90;0.90;;;;;;;4.74;49.51;100192.28;4878777;29;20479;-89
2024/01/15 09:38:34;;;;;;;1.20;1.10;;;;;;;4.68;49.60;100183.19;4875633;29;20540;-89
2024/01/15 09:41:00;;;;;;;4.20;3.90;;;;;;;4.64;50.07;100197.56;4879204;29;20434;-90
2024/01/15 09:43:26;;;;;;;0.88;0.88;;;;;;;4.86;49.61;100195.53;4880042;29;20420;-89
2024/01/15 09:45:53;;;;;;;0.50;0.50;;;;;;;4.75;49.33;100179.00;4881246;29;20408;-89
2024/01/15 09:48:19;;;;;;;1.02;0.98;;;;;;;4.80;49.77;100186.44;4881226;29;20460;-89
2024/01/15 09:50:45;;;;;;;1.85;1.60;;;;;;;4.87;49.31;100182.25;4880318;29;20435;-89
2024/01/15 09:53:15;;;;;;;1.30;1.05;;;;;;;4.86;49.08;100166.63;4880978;29;20399;-89
2024/01/15 09:55:44;;;;;;;1.77;1.67;;;;;;;4.89;49.34;100169.78;4882314;29;20423;-89
2024/01/15 09:58:10;;;;;;;0.90;0.90;;;;;;;5.05;48.82;100163.09;4883126;29;20903;-91
2024/01/15 10:00:39;;;;;;;1.38;1.27;;;;;;;5.04;48.98;100153.53;4883121;29;20796;-90
2024/01/15 10:03:06;;;;;;;1.50;1.40;;;;;;;5.08;48.89;100147.03;4883529;29;20428;-89
2024/01/15 10:05:32;;;;;;;2.80;0.88;;;;;;;5.05;48.66;100150.78;4882959;29;20414;-90
2024/01/15 10:08:03;;;;;;;1.50;1.40;;;;;;;4.96;48.67;100154.28;4882834;29;20404;-91
2024/01/15 10:10:28;;;;;;;0.95;0.85;;;;;;;5.15;48.58;100155.97;4867667;29;20404;-90
2024/01/15 10:12:55;;;;;;;0.50;0.50;;;;;;;5.32;48.36;100152.53;4886107;29;20478;-92
2024/01/15 10:15:24;;;;;;;1.00;0.70;;;;;;;5.24;48.24;100151.59;4883154;29;20404;-89
2024/01/15 10:17:50;;;;;;;0.60;0.60;;;;;;;5.22;48.32;100149.16;4884587;29;20407;-89
2024/01/15 10:20:17;;;;;;;0.45;0.45;;;;;;;5.24;48.13;100149.84;4886299;29;20443;-89
2024/01/15 10:22:46;;;;;;;2.22;1.65;;;;;;;5.33;48.22;100148.94;4888199;29;20404;-89
2024/01/15 10:25:15;;;;;;;0.90;0.90;;;;;;;5.44;48.26;100133.88;4900916;29;20528;-89
2024/01/15 10:27:41;;;;;;;0.80;0.80;;;;;;;5.48;47.87;100128.19;4888577;29;20416;-89
2024/01/15 10:30:08;;;;;;;0.70;0.70;;;;;;;5.30;47.22;100127.38;4882956;29;20483;-88
2024/01/15 10:32:37;;;;;;;0.57;0.57;;;;;;;5.39;48.01;100144.88;4884275;29;20491;-90
2024/01/15 10:35:04;;;;;;;0.90;0.90;;;;;;;5.36;47.46;100132.84;4888283;29;20893;-89
2024/01/15 10:37:33;;;;;;;0.57;0.57;;;;;;;5.21;47.89;100134.34;4884403;29;20408;-89
2024/01/15 10:40:04;;;;;;;1.23;1.10;;;;;;;5.16;48.15;100124.28;4884701;29;20416;-90
2024/01/15 10:42:33;;;;;;;0.68;0.68;;;;;;;5.19;48.06;100109.22;4893040;29;20437;-87
2024/01/15 10:45:02;;;;;;;1.80;1.27;;;;;;;5.19;47.98;100107.41;4902308;29;20431;-89
2024/01/15 10:47:31;;;;;;;0.45;0.45;;;;;;;5.47;47.90;100112.56;4885898;29;20422;-88
2024/01/15 10:49:57;;;;;;;1.77;0.97;;;;;;;5.70;47.49;100105.84;4898797;29;20434;-89
2024/01/15 10:52:26;;;;;;;0.52;0.43;;;;;;;5.69;47.64;100106.00;4902642;29;20472;-88
2024/01/15 10:54:53;;;;;;;0.93;0.93;;;;;;;5.65;47.96;100102.03;4886426;29;20487;-89
2024/01/15 10:57:21;;;;;;;0.50;0.50;;;;;;;5.72;47.62;100103.88;4902203;29;20408;-89
2024/01/15 10:59:47;;;;;;;0.90;0.40;;;;;;;5.63;47.97;100099.53;4886442;29;20395;-89
2024/01/15 11:02:15;;;;;;;1.97;0.83;;;;;;;5.68;47.95;100113.06;4886875;29;20412;-90
2024/01/15 11:04:42;;;;;;;5.40;1.98;;;;;;;5.81;47.88;100098.69;4889065;29;20495;-90
2024/01/15 11:07:08;;;;;;;0.53;0.53;;;;;;;5.91;47.67;100091.53;4888239;29;20455;-90
2024/01/15 11:09:35;;;;;;;0.63;0.60;;;;;;;5.99;47.47;100096.88;4886005;29;20741;-89
2024/01/15 11:12:12;;;;;;;5.05;2.10;;;;;;;5.91;47.99;100087.09;4889096;29;20412;-89
2024/01/15 11:14:47;;;;;;;0.60;0.60;;;;;;;5.97;47.62;100087.50;4887122;29;20442;-87
2024/01/15 11:17:13;;;;;;;0.40;0.40;;;;;;;6.04;47.68;100078.00;4887838;29;20816;-90
2024/01/15 11:19:43;;;;;;;1.13;0.93;;;;;;;6.21;47.31;100081.53;4886917;29;20753;-90
2024/01/15 11:22:11;;;;;;;0.50;0.50;;;;;;;6.31;47.36;100083.06;4884162;29;20459;-90
2024/01/15 11:24:40;;;;;;;0.52;0.52;;;;;;;6.26;47.12;100077.44;4888467;29;20416;-89
2024/01/15 11:27:08;;;;;;;1.55;1.50;;;;;;;6.25;47.38;100074.97;4882056;29;20408;-90
2024/01/15 11:29:37;;;;;;;0.52;0.52;;;;;;;6.26;47.53;100076.63;4888133;29;20832;-90
2024/01/15 11:32:06;;;;;;;0.50;0.50;;;;;;;6.32;47.06;100078.63;4884976;29;20400;-90
2024/01/15 11:34:51;;;;;;;0.70;0.70;;;;;;;6.40;47.39;100068.13;4886765;29;20808;-88